Time;durP1;ratioP1;P1;durP2;ratioP2;P2;SDS_P1;SDS_P2;PMS_P1;PMS_P2;Temp;Humidity;BMP_temperature;BMP_pressure;BME280_temperature;BME280_humidity;BME280_pressure;Samples;Min_cycle;Max_cycle;Signal;HPM_P1;HPM_P2
2022/04/28 00:02:06;;;;;;;;;;;12.50;77.00;;;11.50;nan;96358.06;4182346;33;20214;-86
2022/04/28 00:04:34;;;;;;;;;;;12.50;76.90;;;11.50;nan;96358.06;4159208;33;20140;-85
2022/04/28 00:07:03;;;;;;;;;;;12.50;76.90;;;11.48;nan;96352.84;4181768;33;19959;-85
2022/04/28 00:09:32;;;;;;;;;;;12.40;76.70;;;11.48;nan;96347.38;4158550;33;19927;-86
2022/04/28 00:12:01;;;;;;;;;;;12.50;76.90;;;11.48;nan;96343.78;4182038;33;20129;-85
2022/04/28 00:14:30;;;;;;;;;;;12.40;76.70;;;11.47;nan;96344.88;4159249;33;19903;-85
2022/04/28 00:17:00;;;;;;;;;;;12.40;76.80;;;11.48;nan;96350.13;4181502;33;19903;-86
2022/04/28 00:19:28;;;;;;;;;;;12.40;76.80;;;11.48;nan;96350.13;4158610;33;19903;-86
2022/04/28 00:21:57;;;;;;;;;;;12.40;76.80;;;11.45;nan;96336.94;4158145;33;19976;-86
2022/04/28 00:24:25;;;;;;;;;;;12.40;76.90;;;11.47;nan;96342.16;4181017;33;19995;-85
2022/04/28 00:26:58;;;;;;;;;;;12.40;76.80;;;11.45;nan;96341.59;4204718;33;20011;-86
2022/04/28 00:29:27;;;;;;;;;;;12.40;76.80;;;11.46;nan;96337.75;4181931;33;19922;-86
2022/04/28 00:31:55;;;;;;;;;;;12.40;76.90;;;11.45;nan;96342.44;4182030;33;20047;-86
2022/04/28 00:34:25;;;;;;;;;;;12.40;76.90;;;11.46;nan;96340.50;4181053;33;20362;-86
2022/04/28 00:36:54;;;;;;;;;;;12.40;76.90;;;11.44;nan;96337.19;4180396;33;20046;-86
2022/04/28 00:39:22;;;;;;;;;;;12.40;76.90;;;11.44;nan;96334.44;4157850;33;20341;-86
2022/04/28 00:41:51;;;;;;;;;;;12.40;76.90;;;11.42;nan;96331.19;4157890;33;20102;-86
2022/04/28 00:44:20;;;;;;;;;;;12.40;76.90;;;11.44;nan;96343.53;4157745;33;20142;-86
2022/04/28 00:46:49;;;;;;;;;;;12.40;77.00;;;11.44;nan;96334.44;4157281;33;20045;-87
2022/04/28 00:52:07;;;;;;;;;;;12.40;77.00;;;11.44;nan;96321.59;4180665;33;20099;-86
2022/04/28 00:54:36;;;;;;;;;;;12.40;77.00;;;11.45;nan;96325.13;4157831;33;20016;-86
2022/04/28 00:57:04;;;;;;;;;;;12.40;77.10;;;11.45;nan;96319.66;4180225;33;20125;-86
2022/04/28 00:59:34;;;;;;;;;;;12.40;77.00;;;11.44;nan;96318.84;4157753;33;20065;-86
2022/04/28 01:02:04;;;;;;;;;;;12.40;77.10;;;11.42;nan;96306.53;4180551;33;19902;-86
2022/04/28 01:04:33;;;;;;;;;;;12.40;77.10;;;11.45;nan;96305.94;4180734;33;19903;-86
2022/04/28 01:07:02;;;;;;;;;;;12.40;77.10;;;11.45;nan;96300.47;4157116;33;19909;-86
2022/04/28 01:09:36;;;;;;;;;;;12.40;77.10;;;11.44;nan;96296.06;4157784;33;19903;-86
2022/04/28 01:12:12;;;;;;;;;;;12.40;77.20;;;11.45;nan;96293.09;4157626;33;19903;-86
2022/04/28 01:14:42;;;;;;;;;;;12.40;77.20;;;11.43;nan;96283.47;4180565;33;19929;-86
2022/04/28 01:17:11;;;;;;;;;;;12.40;77.30;;;11.45;nan;96286.75;4180003;33;19926;-86
2022/04/28 01:19:40;;;;;;;;;;;12.40;77.20;;;11.43;nan;96272.50;4157443;33;19926;-86
2022/04/28 01:22:10;;;;;;;;;;;12.40;77.20;;;11.44;nan;96268.66;4159279;33;20125;-86
2022/04/28 01:24:39;;;;;;;;;;;12.40;77.30;;;11.43;nan;96254.16;4160426;33;20136;-86
2022/04/28 01:27:08;;;;;;;;;;;12.40;77.30;;;11.43;nan;96245.09;4183474;33;19902;-86
2022/04/28 01:29:36;;;;;;;;;;;12.40;77.20;;;11.44;nan;96230.28;4207913;33;20156;-86
2022/04/28 01:32:06;;;;;;;;;;;12.40;77.30;;;11.41;nan;96225.38;4160654;33;19929;-86
2022/04/28 01:34:40;;;;;;;;;;;12.40;77.20;;;11.44;nan;96224.81;4160920;33;20126;-86
2022/04/28 01:37:10;;;;;;;;;;;12.40;77.30;;;11.43;nan;96212.19;4160199;33;19903;-86
2022/04/28 01:39:40;;;;;;;;;;;12.40;77.30;;;11.43;nan;96201.22;4183934;33;20357;-86
2022/04/28 01:42:09;;;;;;;;;;;12.40;77.20;;;11.41;nan;96204.25;4160826;33;20101;-86
2022/04/28 01:44:38;;;;;;;;;;;12.40;77.20;;;11.42;nan;96205.09;4160854;33;20009;-87
2022/04/28 01:47:07;;;;;;;;;;;12.40;77.20;;;11.41;nan;96197.97;4182932;33;19903;-86
2022/04/28 01:49:54;;;;;;;;;;;12.40;77.20;;;11.42;nan;96205.91;4183527;33;19902;-86
2022/04/28 01:55:52;;;;;;;;;;;12.40;77.30;;;11.43;nan;96212.19;4183408;33;19907;-86
2022/04/28 01:58:39;;;;;;;;;;;12.40;77.30;;;11.43;nan;96213.03;4183597;33;20034;-86
2022/04/28 02:01:34;;;;;;;;;;;12.40;77.20;;;11.43;nan;96218.53;4178351;33;19902;-86
2022/04/28 02:04:03;;;;;;;;;;;12.40;77.30;;;11.41;nan;96212.47;4183488;33;19976;-86
2022/04/28 02:06:32;;;;;;;;;;;12.40;77.30;;;11.42;nan;96194.94;4159144;33;20016;-86
2022/04/28 02:09:03;;;;;;;;;;;12.40;77.20;;;11.41;nan;96187.81;4159638;33;20112;-86
2022/04/28 02:11:32;;;;;;;;;;;12.40;77.30;;;11.42;nan;96172.22;4159504;33;19909;-86
2022/04/28 02:14:16;;;;;;;;;;;12.40;77.40;;;11.42;nan;96169.47;4159672;33;19902;-86
2022/04/28 02:17:18;;;;;;;;;;;12.40;77.30;;;11.42;nan;96183.16;4151891;33;19910;-86
2022/04/28 02:19:47;;;;;;;;;;;12.40;77.30;;;11.41;nan;96198.78;4159762;33;19962;-86
2022/04/28 02:22:15;;;;;;;;;;;12.40;77.30;;;11.42;nan;96196.88;4182501;33;20251;-88
2022/04/28 02:24:45;;;;;;;;;;;12.40;77.30;;;11.42;nan;96200.44;4182376;33;20402;-86
2022/04/28 02:27:16;;;;;;;;;;;12.40;77.30;;;11.41;nan;96198.78;4181474;33;20214;-86
2022/04/28 02:29:45;;;;;;;;;;;12.40;77.30;;;11.42;nan;96196.88;4182330;33;19905;-86
2022/04/28 02:32:15;;;;;;;;;;;12.40;77.30;;;11.41;nan;96181.53;4158935;33;20134;-86
2022/04/28 02:34:46;;;;;;;;;;;12.40;77.30;;;11.42;nan;96177.69;4159075;33;20268;-86
2022/04/28 02:37:14;;;;;;;;;;;12.40;77.40;;;11.42;nan;96172.22;4181188;33;19921;-87
2022/04/28 02:39:45;;;;;;;;;;;12.40;77.40;;;11.42;nan;96172.22;4181423;33;20497;-86
2022/04/28 02:42:17;;;;;;;;;;;12.40;77.30;;;11.42;nan;96174.94;4159031;33;20273;-86
2022/04/28 02:44:46;;;;;;;;;;;12.40;77.30;;;11.41;nan;96176.84;4159279;33;19902;-86
2022/04/28 02:47:17;;;;;;;;;;;12.40;77.30;;;11.41;nan;96176.03;4158524;33;19911;-86
2022/04/28 02:49:47;;;;;;;;;;;12.40;77.30;;;11.41;nan;96176.84;4158874;33;19968;-85
2022/04/28 02:52:16;;;;;;;;;;;12.40;77.30;;;11.41;nan;96170.56;4158889;33;20064;-86
2022/04/28 02:54:50;;;;;;;;;;;12.40;77.30;;;11.41;nan;96170.56;4182195;33;20122;-86
2022/04/28 02:57:19;;;;;;;;;;;12.40;77.40;;;11.41;nan;96181.53;4158548;33;20292;-86
2022/04/28 02:59:47;;;;;;;;;;;12.40;77.40;;;11.41;nan;96187.81;4159155;33;20064;-86
2022/04/28 03:02:16;;;;;;;;;;;12.40;77.50;;;11.40;nan;96201.81;4158957;33;19903;-86
2022/04/28 03:04:45;;;;;;;;;;;12.40;77.50;;;11.41;nan;96215.22;4159057;33;20316;-85
2022/04/28 03:12:47;;;;;;;;;;;12.40;77.50;;;11.41;nan;96226.19;4158873;33;20144;-86
2022/04/28 03:15:27;;;;;;;;;;;12.40;77.50;;;11.42;nan;96243.47;4158754;33;19910;-87
2022/04/28 03:17:56;;;;;;;;;;;12.40;77.50;;;11.41;nan;96247.31;4158314;33;20490;-86
2022/04/28 03:20:25;;;;;;;;;;;12.40;77.50;;;11.42;nan;96251.69;4186274;33;19910;-86
2022/04/28 03:22:54;;;;;;;;;;;12.40;77.50;;;11.42;nan;96259.91;4186062;33;20214;-86
2022/04/28 03:25:26;;;;;;;;;;;12.40;77.60;;;11.42;nan;96263.47;4186195;33;19903;-86
2022/04/28 03:27:56;;;;;;;;;;;12.40;77.50;;;11.41;nan;96267.31;4185595;33;20122;-86
2022/04/28 03:30:25;;;;;;;;;;;12.40;77.50;;;11.41;nan;96280.19;4209401;33;20494;-86
2022/04/28 03:33:26;;;;;;;;;;;12.40;77.60;;;11.42;nan;96288.13;4213838;33;20118;-86
2022/04/28 03:35:55;;;;;;;;;;;12.40;77.60;;;11.42;nan;96290.06;4205101;33;19903;-88
2022/04/28 03:38:24;;;;;;;;;;;12.40;77.60;;;11.42;nan;96309.25;4158887;33;20090;-86
2022/04/28 03:40:54;;;;;;;;;;;12.40;77.60;;;11.43;nan;96319.09;4186099;33;19902;-86
2022/04/28 03:43:25;;;;;;;;;;;12.40;77.60;;;11.42;nan;96322.97;4208721;33;19917;-86
2022/04/28 03:45:54;;;;;;;;;;;12.40;77.50;;;11.42;nan;96325.72;4185859;33;20135;-87
2022/04/28 03:48:23;;;;;;;;;;;12.40;77.60;;;11.42;nan;96332.00;4185788;33;19908;-86
2022/04/28 03:50:53;;;;;;;;;;;12.40;77.60;;;11.42;nan;96336.66;4186064;33;19999;-87
2022/04/28 03:53:21;;;;;;;;;;;12.40;77.60;;;11.42;nan;96342.97;4209176;33;20095;-87
2022/04/28 03:55:50;;;;;;;;;;;12.40;77.60;;;11.41;nan;96346.81;4160539;33;19905;-87
2022/04/28 03:58:20;;;;;;;;;;;12.40;77.60;;;11.41;nan;96352.28;4181372;33;20099;-87
2022/04/28 04:00:50;;;;;;;;;;;12.40;77.60;;;11.42;nan;96347.63;4206283;33;20406;-87
2022/04/28 04:03:31;;;;;;;;;;;12.40;77.60;;;11.42;nan;96347.63;4186369;33;19902;-88
2022/04/28 04:06:00;;;;;;;;;;;12.40;77.60;;;11.40;nan;96341.59;4160471;33;20162;-88
2022/04/28 04:08:29;;;;;;;;;;;12.40;77.60;;;11.41;nan;96346.00;4158963;33;19926;-88
2022/04/28 04:11:05;;;;;;;;;;;12.40;77.60;;;11.41;nan;96337.75;4181595;33;19910;-88
2022/04/28 04:13:35;;;;;;;;;;;12.40;77.60;;;11.40;nan;96338.84;4158821;33;20273;-88
2022/04/28 04:16:04;;;;;;;;;;;12.40;77.60;;;11.41;nan;96351.47;4182614;33;19902;-88
2022/04/28 04:22:14;;;;;;;;;;;12.40;77.60;;;11.40;nan;96342.41;4116966;34;20064;-87
2022/04/28 04:24:43;;;;;;;;;;;12.40;77.70;;;11.41;nan;96352.28;4145116;33;20018;-87
2022/04/28 04:34:50;;;;;;;;;;;12.40;77.70;;;11.40;nan;96358.03;4186599;33;20221;-89
2022/04/28 04:37:29;;;;;;;;;;;12.40;77.60;;;11.40;nan;96360.78;4186362;33;19903;-88
2022/04/28 04:39:58;;;;;;;;;;;12.40;77.70;;;11.39;nan;96364.63;4185784;33;19985;-88
2022/04/28 04:42:27;;;;;;;;;;;12.40;77.80;;;11.39;nan;96361.88;4186535;33;19922;-90
2022/04/28 04:44:56;;;;;;;;;;;12.40;77.70;;;11.41;nan;96367.91;4181871;33;19910;-89
2022/04/28 04:47:38;;;;;;;;;;;12.40;77.70;;;11.40;nan;96360.78;4159222;33;19910;-88
2022/04/28 04:50:14;;;;;;;;;;;12.40;77.70;;;11.39;nan;96370.91;4181898;33;20221;-88
2022/04/28 04:52:52;;;;;;;;;;;12.40;77.70;;;11.40;nan;96374.50;4158868;33;19907;-88
2022/04/28 04:55:27;;;;;;;;;;;12.40;77.70;;;11.41;nan;96389.84;4181116;33;19996;-89
2022/04/28 04:58:05;;;;;;;;;;;12.40;77.70;;;11.41;nan;96389.84;4158648;33;20046;-88
2022/04/28 05:00:34;;;;;;;;;;;12.40;77.70;;;11.41;nan;96387.09;4158871;33;20161;-88
2022/04/28 05:03:23;;;;;;;;;;;12.40;77.70;;;11.41;nan;96390.66;4205729;33;20114;-88
2022/04/28 05:06:12;;;;;;;;;;;12.40;77.70;;;11.42;nan;96396.97;4203877;33;19917;-88
2022/04/28 05:08:48;;;;;;;;;;;12.40;77.70;;;11.41;nan;96400.81;4158526;33;19926;-88
2022/04/28 05:11:17;;;;;;;;;;;12.40;77.80;;;11.42;nan;96407.94;4198216;33;20181;-89
2022/04/28 05:14:06;;;;;;;;;;;12.40;77.70;;;11.41;nan;96412.59;4218593;33;20445;-89
2022/04/28 05:16:35;;;;;;;;;;;12.40;77.70;;;11.39;nan;96414.78;4186053;33;20221;-89
2022/04/28 05:19:43;;;;;;;;;;;12.40;77.70;;;11.41;nan;96422.75;4181308;33;20233;-90
2022/04/28 05:22:30;;;;;;;;;;;12.40;78.60;;;11.40;nan;96421.09;4233378;33;19972;-89
2022/04/28 05:25:25;;;;;;;;;;;12.40;77.80;;;11.41;nan;96425.47;4178201;33;19903;-89
2022/04/28 05:28:12;;;;;;;;;;;12.40;77.80;;;11.40;nan;96426.56;4232574;33;19902;-90
2022/04/28 05:30:59;;;;;;;;;;;12.40;77.80;;;11.39;nan;96424.94;4233061;33;20237;-89
2022/04/28 05:33:42;;;;;;;;;;;12.40;77.80;;;11.40;nan;96432.88;4232598;33;20214;-89
2022/04/28 05:36:35;;;;;;;;;;;12.40;77.80;;;11.40;nan;96437.53;4197618;33;20166;-89
2022/04/28 05:39:04;;;;;;;;;;;12.40;77.80;;;11.38;nan;96436.97;4208707;33;19903;-88
2022/04/28 05:41:33;;;;;;;;;;;12.40;77.80;;;11.39;nan;96430.41;4200019;33;19912;-89
2022/04/28 05:46:48;;;;;;;;;;;12.40;77.70;;;11.40;nan;96456.72;4185351;33;19909;-88
2022/04/28 05:49:17;;;;;;;;;;;12.40;77.90;;;11.39;nan;96452.34;4185608;33;20098;-87
2022/04/28 05:51:48;;;;;;;;;;;12.40;77.80;;;11.38;nan;96447.94;4208526;33;19909;-87
2022/04/28 05:54:20;;;;;;;;;;;12.40;77.80;;;11.38;nan;96456.16;4185539;33;19909;-87
2022/04/28 05:56:49;;;;;;;;;;;12.30;77.80;;;11.39;nan;96450.41;4207656;33;19973;-88
2022/04/28 05:59:18;;;;;;;;;;;12.40;77.80;;;11.39;nan;96446.84;4208722;33;20167;-87
2022/04/28 06:01:47;;;;;;;;;;;12.40;77.80;;;11.39;nan;96446.84;4208722;33;20038;-88
2022/04/28 06:04:20;;;;;;;;;;;12.40;77.90;;;11.39;nan;96457.81;4185825;33;20026;-88
2022/04/28 06:06:53;;;;;;;;;;;12.40;77.90;;;11.39;nan;96453.16;4208575;33;19902;-87
2022/04/28 06:09:45;;;;;;;;;;;12.40;77.90;;;11.41;nan;96455.63;4211569;33;20042;-88
2022/04/28 06:12:24;;;;;;;;;;;12.40;77.90;;;11.38;nan;96454.22;4188599;33;20230;-88
2022/04/28 06:15:18;;;;;;;;;;;12.40;77.80;;;11.39;nan;96450.41;4234988;33;19902;-90
2022/04/28 06:18:07;;;;;;;;;;;12.40;77.90;;;11.39;nan;96446.84;4211214;33;19974;-90
2022/04/28 06:20:39;;;;;;;;;;;12.40;77.80;;;11.40;nan;96443.81;4211843;33;19903;-90
2022/04/28 06:23:14;;;;;;;;;;;12.40;77.80;;;11.40;nan;96443.03;4189149;33;20402;-90
2022/04/28 06:25:48;;;;;;;;;;;12.40;77.90;;;11.42;nan;96446.31;4189425;33;19902;-89
2022/04/28 06:28:18;;;;;;;;;;;12.40;77.90;;;11.41;nan;96442.75;4235690;33;19909;-90
2022/04/28 06:30:54;;;;;;;;;;;12.40;77.90;;;11.43;nan;96442.47;4188970;33;20374;-90
2022/04/28 06:33:41;;;;;;;;;;;12.40;77.90;;;11.44;nan;96447.69;4236905;33;20161;-91
2022/04/28 06:36:20;;;;;;;;;;;12.40;77.80;;;11.42;nan;96451.81;4212199;33;20098;-89
2022/04/28 06:38:52;;;;;;;;;;;12.40;77.80;;;11.44;nan;96444.09;4189187;33;19903;-90
2022/04/28 06:41:21;;;;;;;;;;;12.40;77.90;;;11.44;nan;96450.44;4212128;33;20008;-89
2022/04/28 06:43:56;;;;;;;;;;;12.40;77.80;;;11.46;nan;96447.41;4189306;33;19961;-89
2022/04/28 06:46:31;;;;;;;;;;;12.40;77.80;;;11.45;nan;96451.25;4184674;33;19903;-90
2022/04/28 06:49:08;;;;;;;;;;;12.40;77.80;;;11.44;nan;96444.09;4208594;33;20143;-90
2022/04/28 06:51:57;;;;;;;;;;;12.40;77.80;;;11.46;nan;96458.38;4129731;33;20092;-89
2022/04/28 06:54:44;;;;;;;;;;;12.40;77.80;;;11.45;nan;96462.22;4161870;33;19902;-89
2022/04/28 06:57:16;;;;;;;;;;;12.40;77.80;;;11.45;nan;96464.94;4161318;33;19910;-91
2022/04/28 06:59:45;;;;;;;;;;;12.40;77.90;;;11.46;nan;96467.44;4161566;33;19902;-90
2022/04/28 07:02:20;;;;;;;;;;;12.40;77.60;;;11.45;nan;96465.78;4161535;33;20014;-90
2022/04/28 07:04:51;;;;;;;;;;;12.40;77.80;;;11.46;nan;96461.13;4184339;33;19903;-89
2022/04/28 07:07:22;;;;;;;;;;;12.40;77.80;;;11.44;nan;96469.63;4160779;33;20459;-90
2022/04/28 07:09:59;;;;;;;;;;;12.40;77.70;;;11.47;nan;96473.72;4184156;33;19903;-89
2022/04/28 07:12:28;;;;;;;;;;;12.40;77.80;;;11.44;nan;96477.84;4161235;33;19910;-90
2022/04/28 07:14:59;;;;;;;;;;;12.40;77.80;;;11.44;nan;96485.22;4184172;33;19925;-90
2022/04/28 07:17:34;;;;;;;;;;;12.40;77.80;;;11.43;nan;96475.34;4208084;33;19902;-89
2022/04/28 07:20:05;;;;;;;;;;;12.40;77.80;;;11.44;nan;96486.06;4183684;33;19903;-89
2022/04/28 07:22:34;;;;;;;;;;;12.40;77.80;;;11.44;nan;96490.72;4190100;33;19902;-90
2022/04/28 07:25:06;;;;;;;;;;;12.40;77.90;;;11.42;nan;96491.00;4188950;33;20388;-89
2022/04/28 07:27:35;;;;;;;;;;;12.40;77.80;;;11.44;nan;96493.44;4235361;33;19909;-91
2022/04/28 07:30:18;;;;;;;;;;;12.40;77.80;;;11.42;nan;96490.19;4211696;33;20280;-90
2022/04/28 07:32:46;;;;;;;;;;;12.40;77.70;;;11.42;nan;96495.66;4235291;33;19917;-90
2022/04/28 07:35:23;;;;;;;;;;;12.40;77.80;;;11.43;nan;96494.53;4236371;33;19902;-90
2022/04/28 07:38:11;;;;;;;;;;;12.40;77.80;;;11.43;nan;96491.81;4201211;33;20102;-90
2022/04/28 07:41:07;;;;;;;;;;;12.40;77.80;;;11.43;nan;96486.31;4177424;33;19910;-90
2022/04/28 07:43:36;;;;;;;;;;;12.40;77.80;;;11.43;nan;96502.75;4183999;33;20022;-90
2022/04/28 07:46:05;;;;;;;;;;;12.40;77.80;;;11.41;nan;96504.97;4207820;33;19903;-92
2022/04/28 07:48:33;;;;;;;;;;;12.40;77.80;;;11.42;nan;96512.91;4183775;33;19922;-91
2022/04/28 07:51:03;;;;;;;;;;;12.40;77.80;;;11.42;nan;96512.09;4183550;33;19903;-91
2022/04/28 07:53:32;;;;;;;;;;;12.40;77.80;;;11.42;nan;96517.59;4161011;33;20457;-91
2022/04/28 07:56:18;;;;;;;;;;;12.40;77.80;;;11.42;nan;96523.06;4206693;33;19917;-91
2022/04/28 07:58:51;;;;;;;;;;;12.40;77.80;;;11.43;nan;96524.69;4160967;33;20442;-91
2022/04/28 08:01:46;;;;;;;;;;;12.40;77.80;;;11.41;nan;96533.19;4168619;33;20365;-90
2022/04/28 08:04:15;;;;;;;;;;;12.40;77.70;;;11.41;nan;96537.88;4160725;33;19907;-89
2022/04/28 08:06:48;;;;;;;;;;;12.40;77.70;;;11.43;nan;96535.66;4160444;33;19903;-89
2022/04/28 08:09:17;;;;;;;;;;;12.40;77.60;;;11.42;nan;96525.81;4183792;33;19903;-90
2022/04/28 08:12:16;;;;;;;;;;;12.40;77.60;;;11.43;nan;96538.41;4160828;33;19922;-91
2022/04/28 08:15:27;;;;;;;;;;;12.40;77.70;;;11.42;nan;96545.00;4159643;33;20134;-89
2022/04/28 08:17:56;;;;;;;;;;;12.40;77.60;;;11.44;nan;96548.28;4177778;33;19977;-90
2022/04/28 08:20:25;;;;;;;;;;;12.40;77.60;;;11.43;nan;96547.47;4206452;33;20076;-89
2022/04/28 08:23:20;;;;;;;;;;;12.40;77.60;;;11.43;nan;96549.38;4160428;33;20111;-89
2022/04/28 08:25:49;;;;;;;;;;;12.40;77.60;;;11.43;nan;96552.09;4146311;33;19990;-89
2022/04/28 08:28:18;;;;;;;;;;;12.40;77.60;;;11.42;nan;96561.44;4160133;33;19903;-89
2022/04/28 08:32:02;;;;;;;;;;;12.40;77.60;;;11.41;nan;96548.84;4159897;33;23112;-89
2022/04/28 08:35:05;;;;;;;;;;;12.40;77.70;;;11.40;nan;96547.19;4157701;33;19903;-89
2022/04/28 08:37:34;;;;;;;;;;;12.40;77.80;;;11.43;nan;96552.09;4154730;33;20083;-89
2022/04/28 08:44:20;;;;;;;;;;;12.40;77.70;;;11.43;nan;96557.59;4164972;33;19985;-89
2022/04/28 08:46:53;;;;;;;;;;;12.40;77.60;;;11.42;nan;96550.50;4182512;33;19987;-89
2022/04/28 08:49:31;;;;;;;;;;;12.40;77.70;;;11.41;nan;96549.66;4193913;33;20509;-89
2022/04/28 08:52:26;;;;;;;;;;;12.40;77.70;;;11.42;nan;96545.00;4209697;33;19903;-88
2022/04/28 08:55:20;;;;;;;;;;;12.40;77.60;;;11.43;nan;96546.63;4210344;33;20118;-88
2022/04/28 08:57:58;;;;;;;;;;;12.40;77.60;;;11.42;nan;96545.00;4185843;33;19909;-88
2022/04/28 09:00:27;;;;;;;;;;;12.40;77.60;;;11.44;nan;96545.53;4210449;33;19903;-89
2022/04/28 09:03:34;;;;;;;;;;;12.40;77.60;;;11.45;nan;96549.94;4127046;34;20058;-89
2022/04/28 09:06:22;;;;;;;;;;;12.40;77.60;;;11.45;nan;96547.19;4149456;34;19911;-88
2022/04/28 09:09:15;;;;;;;;;;;12.40;77.60;;;11.46;nan;96548.84;4208150;33;20460;-88
2022/04/28 09:12:21;;;;;;;;;;;12.40;77.50;;;11.47;nan;96553.22;4073656;34;19905;-89
2022/04/28 09:15:25;;;;;;;;;;;12.40;77.60;;;11.46;nan;96552.41;4148281;33;20354;-88
2022/04/28 09:18:02;;;;;;;;;;;12.40;77.60;;;11.47;nan;96542.25;4159367;33;20074;-87
2022/04/28 09:20:31;;;;;;;;;;;12.40;77.60;;;11.45;nan;96539.81;4177407;33;20095;-88
2022/04/28 09:23:02;;;;;;;;;;;12.40;77.60;;;11.47;nan;96545.84;4210144;33;19909;-89
2022/04/28 09:25:43;;;;;;;;;;;12.40;77.50;;;11.48;nan;96546.66;4187011;33;20212;-88
2022/04/28 09:28:12;;;;;;;;;;;12.40;77.50;;;11.48;nan;96544.75;4186823;33;19902;-90
2022/04/28 09:30:45;;;;;;;;;;;12.50;77.60;;;11.49;nan;96546.38;4187039;33;19902;-88
2022/04/28 09:33:52;;;;;;;;;;;12.50;77.90;;;11.52;nan;96558.75;4180751;33;20118;-88
2022/04/28 09:36:42;;;;;;;;;;;12.50;77.80;;;11.53;nan;96546.69;4194320;33;19907;-88
2022/04/28 09:42:29;;;;;;;;;;;12.50;77.80;;;11.52;nan;96539.56;4159515;33;19903;-89
2022/04/28 09:44:58;;;;;;;;;;;12.50;77.60;;;11.57;nan;96553.28;4162022;33;20229;-90
2022/04/28 09:47:28;;;;;;;;;;;12.50;77.40;;;11.58;nan;96548.63;4161905;33;19903;-90
2022/04/28 09:49:58;;;;;;;;;;;12.50;77.40;;;11.59;nan;96551.09;4162017;33;20129;-90
2022/04/28 09:52:33;;;;;;;;;;;12.60;77.30;;;11.62;nan;96558.78;4184485;33;20290;-89
2022/04/28 09:55:27;;;;;;;;;;;12.60;77.20;;;11.63;nan;96557.69;4208861;33;19910;-90
2022/04/28 09:58:15;;;;;;;;;;;12.60;77.10;;;11.65;nan;96558.25;4209051;33;19953;-90
2022/04/28 10:00:44;;;;;;;;;;;12.60;77.10;;;11.66;nan;96559.06;4161835;33;19910;-91
2022/04/28 10:03:14;;;;;;;;;;;12.60;77.00;;;11.65;nan;96552.78;4184838;33;20133;-91
2022/04/28 10:05:44;;;;;;;;;;;12.60;77.00;;;11.65;nan;96550.03;4162151;33;19941;-91
2022/04/28 10:08:32;;;;;;;;;;;12.60;77.00;;;11.66;nan;96557.16;4185066;33;19902;-89
2022/04/28 10:11:14;;;;;;;;;;;12.60;77.00;;;11.66;nan;96554.41;4162009;33;19918;-91
2022/04/28 10:13:45;;;;;;;;;;;12.70;77.10;;;11.66;nan;96551.69;4161838;33;20267;-92
2022/04/28 10:16:19;;;;;;;;;;;12.70;77.10;;;11.69;nan;96553.06;4162083;33;19968;-91
2022/04/28 10:18:50;;;;;;;;;;;12.70;77.00;;;11.70;nan;96551.13;4162008;33;19910;-91
2022/04/28 10:21:41;;;;;;;;;;;12.70;77.00;;;11.70;nan;96545.63;4185000;33;19903;-91
2022/04/28 10:33:00;;;;;;;;;;;12.70;76.90;;;11.73;nan;96550.59;4207849;33;19902;-91
2022/04/28 10:35:35;;;;;;;;;;;12.70;76.90;;;11.72;nan;96549.78;4161827;33;20157;-92
2022/04/28 10:38:11;;;;;;;;;;;12.70;76.90;;;11.72;nan;96541.56;4184400;33;19973;-91
2022/04/28 10:40:41;;;;;;;;;;;12.70;76.90;;;11.73;nan;96550.59;4165270;33;19907;-93
2022/04/28 10:43:24;;;;;;;;;;;12.70;76.90;;;11.75;nan;96542.91;4212467;33;19902;-92
2022/04/28 10:45:55;;;;;;;;;;;12.70;76.90;;;11.77;nan;96546.22;4189027;33;19995;-90
2022/04/28 10:48:28;;;;;;;;;;;12.70;76.70;;;11.79;nan;96550.34;4212439;33;19980;-90
2022/04/28 10:51:11;;;;;;;;;;;12.80;76.70;;;11.81;nan;96544.59;4212380;33;19902;-91
2022/04/28 10:54:10;;;;;;;;;;;12.80;76.60;;;11.82;nan;96552.53;4211359;33;20246;-92
2022/04/28 10:56:58;;;;;;;;;;;12.80;76.50;;;11.82;nan;96547.06;4206967;33;20463;-92
2022/04/28 10:59:40;;;;;;;;;;;12.80;76.40;;;11.83;nan;96558.84;4161558;33;19902;-91
2022/04/28 11:02:52;;;;;;;;;;;12.80;76.40;;;11.81;nan;96561.06;4207493;33;20233;-92
2022/04/28 11:05:37;;;;;;;;;;;12.80;76.40;;;11.81;nan;96561.06;4206808;33;19903;-91
2022/04/28 11:08:23;;;;;;;;;;;12.80;76.40;;;11.77;nan;96558.00;4206896;33;20119;-93
2022/04/28 11:11:24;;;;;;;;;;;12.80;76.50;;;11.78;nan;96565.13;4160968;33;20143;-91
2022/04/28 11:13:57;;;;;;;;;;;12.80;76.60;;;11.77;nan;96560.75;4160341;33;20092;-90
2022/04/28 11:16:26;;;;;;;;;;;12.80;76.60;;;11.75;nan;96559.38;4161152;33;19910;-91
2022/04/28 11:18:57;;;;;;;;;;;12.80;76.70;;;11.76;nan;96561.03;4161356;33;19910;-92
2022/04/28 11:21:25;;;;;;;;;;;12.70;76.60;;;11.75;nan;96559.38;4161397;33;20051;-91
2022/04/28 11:23:55;;;;;;;;;;;12.70;76.70;;;11.73;nan;96551.44;4161658;33;20125;-92
2022/04/28 11:27:56;;;;;;;;;;;;;;;;;;;;;
2022/04/28 11:39:25;;;;;;;;;;;12.80;76.60;;;11.79;nan;96544.03;4124319;34;19907;-92
2022/04/28 11:45:42;;;;;;;;;;;12.80;76.50;;;11.79;nan;96539.34;4142021;33;20051;-93
2022/04/28 11:48:10;;;;;;;;;;;12.80;76.60;;;11.81;nan;96541.84;4183569;33;19907;-92
2022/04/28 11:50:39;;;;;;;;;;;12.80;76.60;;;11.79;nan;96538.56;4206396;33;19903;-93
2022/04/28 11:53:09;;;;;;;;;;;12.80;76.50;;;11.78;nan;96542.38;4183257;33;20337;-93
2022/04/28 11:55:40;;;;;;;;;;;12.80;76.60;;;11.76;nan;96539.91;4183526;33;19903;-93
2022/04/28 11:58:10;;;;;;;;;;;12.80;76.60;;;11.77;nan;96547.03;4205665;33;19903;-93
2022/04/28 12:00:39;;;;;;;;;;;12.70;76.60;;;11.76;nan;96536.34;4183244;33;19909;-93
2022/04/28 12:03:08;;;;;;;;;;;12.70;76.70;;;11.76;nan;96533.59;4182803;33;19910;-92
2022/04/28 12:05:37;;;;;;;;;;;12.70;76.70;;;11.74;nan;96536.63;4182979;33;20094;-93
2022/04/28 12:08:06;;;;;;;;;;;12.70;76.80;;;11.74;nan;96530.28;4160256;33;19993;-93
2022/04/28 12:15:00;;;;;;;;;;;12.70;76.70;;;11.75;nan;96542.91;4071048;34;19905;-92
2022/04/28 12:24:11;;;;;;;;;;;12.70;76.80;;;11.72;nan;96532.47;4181560;33;20256;-93
2022/04/28 12:26:42;;;;;;;;;;;12.70;76.80;;;11.73;nan;96526.75;4206557;33;19902;-93
2022/04/28 12:29:11;;;;;;;;;;;12.70;76.90;;;11.74;nan;96520.16;4187851;33;19903;-91
2022/04/28 12:31:42;;;;;;;;;;;12.70;76.90;;;11.75;nan;96526.47;4193718;33;19909;-93
2022/04/28 12:34:11;;;;;;;;;;;12.70;76.90;;;11.75;nan;96526.47;4194724;33;19902;-91
2022/04/28 12:36:48;;;;;;;;;;;12.70;76.80;;;11.76;nan;96525.38;4218001;33;19902;-92
2022/04/28 12:43:36;;;;;;;;;;;12.80;76.80;;;11.76;nan;96528.91;4196680;33;19905;-93
2022/04/28 12:46:06;;;;;;;;;;;12.80;76.70;;;11.77;nan;96524.28;4197286;33;19902;-90
2022/04/28 12:48:40;;;;;;;;;;;12.70;76.70;;;11.75;nan;96524.53;4198218;33;20106;-91
2022/04/28 12:51:14;;;;;;;;;;;12.70;76.60;;;11.75;nan;96527.28;4222102;33;19902;-91
2022/04/28 12:53:44;;;;;;;;;;;12.70;76.70;;;11.75;nan;96526.47;4212698;33;20097;-91
2022/04/28 12:56:14;;;;;;;;;;;12.70;76.80;;;11.73;nan;96520.41;4198993;33;19905;-91
2022/04/28 12:59:16;;;;;;;;;;;12.70;76.80;;;11.73;nan;96528.66;4194615;33;19896;-91
2022/04/28 13:06:10;;;;;;;;;;;12.70;76.90;;;11.69;nan;96519.28;4152648;33;19918;-92
2022/04/28 13:08:39;;;;;;;;;;;12.70;76.90;;;11.67;nan;96519.59;4222841;33;19910;-92
2022/04/28 13:11:08;;;;;;;;;;;12.70;77.00;;;11.69;nan;96522.03;4199917;33;19921;-92
2022/04/28 13:13:36;;;;;;;;;;;12.70;77.00;;;11.68;nan;96520.41;4199621;33;20131;-92
2022/04/28 13:16:10;;;;;;;;;;;12.70;77.00;;;11.68;nan;96517.69;4222866;33;20065;-91
2022/04/28 13:18:39;;;;;;;;;;;12.70;77.00;;;11.67;nan;96516.84;4214664;33;20137;-92
2022/04/28 13:21:11;;;;;;;;;;;12.70;77.00;;;11.67;nan;96519.59;4218507;33;19914;-91
2022/04/28 13:23:39;;;;;;;;;;;12.60;76.90;;;11.65;nan;96511.63;4179797;33;20103;-93
2022/04/28 13:26:09;;;;;;;;;;;12.60;76.90;;;11.65;nan;96514.38;4222914;33;20001;-90
2022/04/28 13:28:37;;;;;;;;;;;12.70;77.10;;;11.66;nan;96509.69;4194836;33;19895;-92